Aérodrome :
LOGIN :

S'inscrire | Disclaimer

   EN    FR    IT 

 










Légende :    VFR   VFR Marginal   IFR   IFR Intensif   IFR Très Intensif
Visi : 
Plafond : 
>= 8 km
>= 3000ft
5 à 8 km
1000 à 3000 ft
1500m à 5 km
500 à 1000 ft
800 à 1500m
200 à 500 ft
< 800m
< 200 ft
Symboles :   Orages  Brouillard  Fortes neiges  Fortes précipitations  Vent > 20 kt
SIGMETs :   Divers  Orages  Givrage  Turbulence  Onde Orograph.  Cendres Volcan.







- Altitude de l'aérodrome : 1966 ft
- Code IATA : SGE


EDGS - Siegerland

DERNIER METAR :
  • 190950Z 29016KT 0300 R31/0800VP2000D FG OVC001 01/01 Q1015

METARs EXPIRÉS :
  • 190920Z 29017KT 0400 R31/0350V0500D -SHSN FG OVC001 01/01 Q1014
  • 190850Z 29017KT 0300 R31/0700N FG OVC001 01/01 Q1014
  • 190820Z 29015G25KT 0500 R31/0650VP2000D FG OVC001 01/01 Q1014
  • 190750Z 29017KT 0400 R31/1200VP2000D FG OVC001 01/01 Q1013

TAF TAF EDGS
Valide du 19 à 09h jusqu'au 19 à 18h UTC


190800Z 1909/1918 29014KT 6000 SCT001 BKN005
TEMPO 1909/1918 28015G25KT 2000 -RASN PRFG BKN001
PROB40
TEMPO 1909/1918 0100 SHSNGS FG BKN000 SCT003TCU
Pas de NOTAMs connus pour ce terrain.



MET'MAP, la Météo Aéronautique d'un coup d'oeil ! - Copyright ORBIFLY Décembre 2007 - Disclaimer

ORBIFLY MET'MAP TEAM :

Programmation & Développement : Alexandra Zaïnal
Conception & Développement : Baudouin d'Aumeries
Co-Programmation & Développement : Marc-Olivier Méhu
Soutien technique & logistique : Manuel Goepfert

Contact : metmap@orbifly.com




SOURCES & CREDITS :

   NOAA